createdAt,value
2023-09-15T04:02:00.520Z,15.88
2023-09-15T04:04:27.949Z,15.87
2023-09-15T04:06:55.104Z,15.87
2023-09-15T04:09:25.468Z,15.87
2023-09-15T04:11:54.769Z,15.88
2023-09-15T04:14:22.633Z,15.88
2023-09-15T04:16:49.592Z,15.87
2023-09-15T04:19:16.873Z,15.86
2023-09-15T04:21:44.368Z,15.88
2023-09-15T04:24:11.632Z,15.88
2023-09-15T04:26:40.292Z,15.90
2023-09-15T04:29:08.512Z,15.91
2023-09-15T04:31:38.307Z,15.86
2023-09-15T04:34:06.604Z,15.74
2023-09-15T04:36:34.443Z,15.72
2023-09-15T04:39:03.414Z,15.68
2023-09-15T04:41:31.180Z,15.66
2023-09-15T04:43:58.654Z,15.66
2023-09-15T04:46:25.733Z,15.64
2023-09-15T04:48:52.751Z,15.62
2023-09-15T04:51:19.814Z,15.63
2023-09-15T04:53:48.292Z,15.63
2023-09-15T04:56:15.824Z,15.61
2023-09-15T04:59:27.062Z,15.60
2023-09-15T05:01:54.904Z,15.59
2023-09-15T05:04:22.631Z,15.58
2023-09-15T05:06:49.669Z,15.56
2023-09-15T05:09:20.920Z,15.58
2023-09-15T05:11:48.730Z,15.58
2023-09-15T05:14:16.184Z,15.57
2023-09-15T05:16:43.969Z,15.60
2023-09-15T05:19:11.923Z,15.61
2023-09-15T05:21:39.173Z,15.64
2023-09-15T05:24:08.176Z,15.66
2023-09-15T05:26:35.840Z,15.69
2023-09-15T05:29:04.396Z,15.72
2023-09-15T05:31:31.674Z,15.75
2023-09-15T05:33:59.122Z,15.79
2023-09-15T05:36:26.774Z,15.83
2023-09-15T05:38:54.232Z,15.85
2023-09-15T05:41:21.567Z,15.86
2023-09-15T05:43:49.355Z,15.88
2023-09-15T05:46:17.785Z,15.89
2023-09-15T05:48:45.453Z,15.91
2023-09-15T05:51:12.645Z,15.89
2023-09-15T05:53:40.829Z,15.89
2023-09-15T05:56:09.959Z,15.90
2023-09-15T05:58:37.683Z,15.94
2023-09-15T06:01:07.885Z,15.96
2023-09-15T06:03:37.454Z,15.99
2023-09-15T06:06:05.491Z,16.05
2023-09-15T06:08:33.575Z,16.11
2023-09-15T06:11:03.785Z,16.17
2023-09-15T06:13:31.272Z,16.23
2023-09-15T06:15:58.606Z,16.30
2023-09-15T06:18:25.742Z,16.35
2023-09-15T06:20:57.141Z,16.41
2023-09-15T06:23:24.956Z,16.46
2023-09-15T06:25:53.036Z,16.57
2023-09-15T06:28:22.414Z,16.66
2023-09-15T06:30:51.888Z,16.70
2023-09-15T06:33:20.741Z,16.77
2023-09-15T06:35:48.361Z,16.85
2023-09-15T06:38:15.928Z,16.91
2023-09-15T06:40:43.092Z,16.98
2023-09-15T06:43:10.570Z,17.10
2023-09-15T06:45:37.881Z,17.19
2023-09-15T06:48:05.153Z,17.26
2023-09-15T06:50:32.380Z,17.42
2023-09-15T06:53:00.764Z,17.61
2023-09-15T06:55:28.161Z,17.81
2023-09-15T06:57:55.908Z,17.97
2023-09-15T07:00:23.569Z,18.10
2023-09-15T07:02:51.575Z,18.20
2023-09-15T07:05:18.926Z,18.32
2023-09-15T07:07:46.137Z,18.49
2023-09-15T07:10:13.297Z,18.64
2023-09-15T07:12:40.530Z,18.77
2023-09-15T07:15:08.114Z,18.87
2023-09-15T07:17:35.573Z,18.99
2023-09-15T07:20:02.793Z,19.11
2023-09-15T07:22:30.073Z,19.21
2023-09-15T07:24:57.208Z,19.30
2023-09-15T07:27:24.704Z,19.34
2023-09-15T07:29:52.129Z,19.35
2023-09-15T07:32:18.995Z,19.36
2023-09-15T07:34:46.103Z,19.35
2023-09-15T07:37:14.415Z,19.35
2023-09-15T07:39:42.655Z,19.39
2023-09-15T07:42:11.000Z,19.43
2023-09-15T07:44:41.609Z,19.49
2023-09-15T07:47:13.005Z,19.59
2023-09-15T07:49:40.898Z,19.68
2023-09-15T07:52:08.358Z,19.77
2023-09-15T07:54:36.101Z,19.82
2023-09-15T07:57:04.711Z,19.87
2023-09-15T07:59:32.150Z,19.92
2023-09-15T08:02:00.186Z,19.97
2023-09-15T08:04:27.471Z,20.00
2023-09-15T08:06:55.916Z,20.06
2023-09-15T08:09:23.092Z,20.12
2023-09-15T08:11:50.274Z,20.16
2023-09-15T08:14:17.337Z,20.20
2023-09-15T08:16:44.332Z,20.23
2023-09-15T08:19:11.847Z,20.27
2023-09-15T08:21:39.629Z,20.30
2023-09-15T08:24:07.651Z,20.33
2023-09-15T08:26:43.473Z,20.40
2023-09-15T08:29:12.766Z,20.46
2023-09-15T08:31:50.477Z,20.52
2023-09-15T08:34:17.929Z,20.54
2023-09-15T08:36:45.307Z,20.55
2023-09-15T08:39:15.762Z,20.64
2023-09-15T08:41:56.402Z,20.71
2023-09-15T08:44:25.139Z,20.79
2023-09-15T08:46:52.518Z,20.85
2023-09-15T08:49:19.715Z,20.91
2023-09-15T08:51:47.557Z,20.96
2023-09-15T08:54:14.717Z,21.04
2023-09-15T08:56:43.809Z,21.15
2023-09-15T08:59:11.978Z,21.24
2023-09-15T09:01:39.994Z,21.34
2023-09-15T09:04:07.988Z,21.42
2023-09-15T09:06:36.150Z,21.52
2023-09-15T09:09:05.088Z,21.58
2023-09-15T09:11:32.977Z,21.63
2023-09-15T09:14:00.403Z,21.67
2023-09-15T09:16:29.472Z,21.73
2023-09-15T09:19:01.706Z,21.75
2023-09-15T09:21:31.156Z,21.80
2023-09-15T09:23:58.746Z,21.82
2023-09-15T09:26:26.023Z,21.88
2023-09-15T09:28:55.497Z,21.93
2023-09-15T09:31:25.047Z,21.98
2023-09-15T09:33:54.135Z,22.04
2023-09-15T09:36:21.972Z,22.10
2023-09-15T09:38:51.600Z,22.24
2023-09-15T09:41:21.497Z,22.38
2023-09-15T09:43:52.699Z,22.45
2023-09-15T09:46:22.029Z,22.49
2023-09-15T09:48:50.976Z,22.51
2023-09-15T09:51:19.233Z,22.50
2023-09-15T09:53:46.774Z,22.52
2023-09-15T09:56:14.720Z,22.51
2023-09-15T09:58:41.785Z,22.55
2023-09-15T10:01:12.227Z,22.63
2023-09-15T10:03:39.751Z,22.73
2023-09-15T10:06:09.422Z,22.87
2023-09-15T10:08:40.420Z,22.96
2023-09-15T10:11:08.477Z,23.05
2023-09-15T10:13:37.168Z,23.19
2023-09-15T10:16:03.951Z,23.34
2023-09-15T10:18:32.142Z,23.44
2023-09-15T10:20:59.343Z,23.53
2023-09-15T10:23:26.397Z,23.53
2023-09-15T10:25:54.370Z,23.54
2023-09-15T10:28:41.550Z,23.50
2023-09-15T10:31:13.201Z,23.38
2023-09-15T10:33:42.703Z,23.34
2023-09-15T10:36:13.560Z,23.32
2023-09-15T10:38:42.361Z,23.32
2023-09-15T10:41:11.774Z,23.36
2023-09-15T10:43:50.299Z,23.35
2023-09-15T10:46:17.355Z,23.32
2023-09-15T10:48:49.744Z,23.39
2023-09-15T10:51:19.510Z,23.53
2023-09-15T10:53:57.010Z,23.64
2023-09-15T10:56:24.980Z,23.69
2023-09-15T10:58:52.235Z,23.71
2023-09-15T11:01:20.016Z,23.65
2023-09-15T11:03:47.983Z,23.58
2023-09-15T11:06:16.299Z,23.54
2023-09-15T11:08:43.670Z,23.52
2023-09-15T11:11:10.976Z,23.49
2023-09-15T11:13:39.441Z,23.45
2023-09-15T11:16:08.076Z,23.41
2023-09-15T11:18:37.252Z,23.42
2023-09-15T11:21:06.457Z,23.44
2023-09-15T11:23:33.889Z,23.48
2023-09-15T11:26:16.872Z,23.53
2023-09-15T11:28:53.918Z,23.58
2023-09-15T11:31:22.974Z,23.64
2023-09-15T11:33:52.835Z,23.65
2023-09-15T11:36:22.065Z,23.64
2023-09-15T11:38:50.068Z,23.65
2023-09-15T11:41:18.022Z,23.66
2023-09-15T11:43:45.496Z,23.64
2023-09-15T11:46:14.842Z,23.62
2023-09-15T11:48:48.766Z,23.63
2023-09-15T11:51:17.080Z,23.69
2023-09-15T11:53:45.399Z,23.73
2023-09-15T11:56:19.235Z,23.76
2023-09-15T11:58:50.887Z,23.82
2023-09-15T12:01:22.698Z,23.90
2023-09-15T12:03:50.807Z,23.87
2023-09-15T12:06:19.650Z,23.95
2023-09-15T12:08:49.045Z,24.03
2023-09-15T12:11:17.188Z,24.12
2023-09-15T12:13:49.471Z,24.15
2023-09-15T12:16:20.746Z,24.13
2023-09-15T12:18:50.949Z,24.08
2023-09-15T12:21:24.897Z,24.03
2023-09-15T12:23:56.898Z,24.01
2023-09-15T12:26:26.790Z,23.95
2023-09-15T12:28:56.945Z,23.89
2023-09-15T12:31:24.817Z,23.92
2023-09-15T12:33:56.773Z,23.98
2023-09-15T12:36:24.285Z,24.00
2023-09-15T12:38:54.240Z,24.02
2023-09-15T12:41:21.327Z,24.07
2023-09-15T12:43:48.537Z,24.12
2023-09-15T12:46:15.715Z,24.09
2023-09-15T12:48:42.809Z,24.04
2023-09-15T12:51:12.264Z,23.98
2023-09-15T12:53:39.094Z,23.92
2023-09-15T12:56:06.256Z,23.87
2023-09-15T12:58:33.516Z,23.90
2023-09-15T13:01:00.436Z,23.94
2023-09-15T13:03:27.692Z,23.96
2023-09-15T13:05:54.955Z,23.94
2023-09-15T13:08:22.170Z,23.92
2023-09-15T13:10:49.102Z,23.90
2023-09-15T13:13:16.300Z,23.88
2023-09-15T13:15:43.512Z,23.87
2023-09-15T13:18:11.496Z,23.90
2023-09-15T13:20:39.604Z,23.91
2023-09-15T13:23:07.259Z,23.92
2023-09-15T13:25:35.646Z,23.91
2023-09-15T13:28:03.286Z,23.89
2023-09-15T13:30:30.389Z,23.87
2023-09-15T13:33:02.437Z,23.82
2023-09-15T13:35:31.011Z,23.76
2023-09-15T13:37:58.351Z,23.73
2023-09-15T13:40:25.398Z,23.70
2023-09-15T13:42:53.772Z,23.70
2023-09-15T13:45:21.440Z,23.72
2023-09-15T13:47:48.725Z,23.73
2023-09-15T13:50:16.360Z,23.72
2023-09-15T13:52:43.177Z,23.74
2023-09-15T13:55:10.229Z,23.75
2023-09-15T13:57:39.083Z,23.78
2023-09-15T14:00:07.193Z,23.81
2023-09-15T14:02:35.283Z,23.81
2023-09-15T14:05:06.874Z,23.85
2023-09-15T14:07:34.753Z,23.87
2023-09-15T14:10:02.154Z,23.86
2023-09-15T14:12:29.612Z,23.80
2023-09-15T14:14:56.750Z,23.79
2023-09-15T14:17:26.708Z,23.79
2023-09-15T14:19:54.636Z,23.77
2023-09-15T14:22:21.884Z,23.76
2023-09-15T14:24:50.838Z,23.76
2023-09-15T14:27:17.953Z,23.74
2023-09-15T14:29:45.411Z,23.74
2023-09-15T14:32:12.552Z,23.74
2023-09-15T14:34:42.374Z,23.73
2023-09-15T14:37:10.125Z,23.75
2023-09-15T14:39:37.313Z,23.75
2023-09-15T14:42:04.940Z,23.76
2023-09-15T14:44:32.108Z,23.79
2023-09-15T14:46:59.849Z,23.82
2023-09-15T14:49:29.140Z,23.82
2023-09-15T14:51:56.729Z,23.82
2023-09-15T14:55:07.998Z,23.82
2023-09-15T14:58:19.092Z,23.83
2023-09-15T15:00:47.164Z,23.83
2023-09-15T15:03:14.798Z,23.83
2023-09-15T15:05:42.180Z,23.83
2023-09-15T15:08:10.241Z,23.82
2023-09-15T15:10:38.067Z,23.81
2023-09-15T15:13:05.470Z,23.82
2023-09-15T15:15:45.082Z,23.83
2023-09-15T15:18:18.767Z,23.82
2023-09-15T15:20:47.404Z,23.72
2023-09-15T15:23:15.057Z,23.77
2023-09-15T15:25:42.216Z,23.75
2023-09-15T15:28:10.300Z,23.74
2023-09-15T15:30:37.666Z,23.73
2023-09-15T15:33:05.785Z,23.73
2023-09-15T15:35:36.711Z,23.72
2023-09-15T15:38:04.321Z,23.70
2023-09-15T15:40:33.492Z,23.68
2023-09-15T15:43:00.752Z,23.67
2023-09-15T15:45:27.815Z,23.64
2023-09-15T15:47:55.398Z,23.64
2023-09-15T15:50:23.007Z,23.60
2023-09-15T15:52:50.060Z,23.55
2023-09-15T15:55:17.478Z,23.51
2023-09-15T15:57:46.601Z,23.47
2023-09-15T16:00:17.684Z,23.43
2023-09-15T16:02:46.621Z,23.38
2023-09-15T16:05:17.039Z,23.34
2023-09-15T16:07:45.817Z,23.25
2023-09-15T16:10:14.478Z,23.17
2023-09-15T16:12:45.045Z,23.10
2023-09-15T16:15:14.739Z,23.03
2023-09-15T16:17:44.548Z,22.96
2023-09-15T16:20:14.737Z,22.90
2023-09-15T16:22:46.618Z,22.84
2023-09-15T16:25:15.754Z,22.78
2023-09-15T16:27:47.733Z,22.70
2023-09-15T16:30:16.181Z,22.62
2023-09-15T16:32:45.642Z,22.54
2023-09-15T16:35:14.682Z,22.48
2023-09-15T16:37:42.928Z,22.42
2023-09-15T16:40:11.923Z,22.36
2023-09-15T16:42:40.205Z,22.30
2023-09-15T16:45:09.275Z,22.24
2023-09-15T16:47:36.776Z,22.18
2023-09-15T16:50:06.212Z,22.09
2023-09-15T16:52:33.795Z,21.99
2023-09-15T16:55:03.288Z,21.87
2023-09-15T16:57:31.195Z,21.74
2023-09-15T17:00:01.067Z,21.64
2023-09-15T17:02:29.236Z,21.52
2023-09-15T17:04:57.473Z,21.38
2023-09-15T17:07:25.887Z,21.35
2023-09-15T17:09:53.681Z,21.18
2023-09-15T17:12:20.604Z,21.12
2023-09-15T17:14:47.672Z,20.99
2023-09-15T17:17:15.123Z,20.85
2023-09-15T17:19:42.380Z,20.75
2023-09-15T17:22:12.190Z,20.65
2023-09-15T17:24:41.136Z,20.55
2023-09-15T17:27:09.884Z,20.48
2023-09-15T17:29:37.438Z,20.40
2023-09-15T17:32:05.644Z,20.32
2023-09-15T17:34:33.474Z,20.22
2023-09-15T17:37:00.818Z,20.13
2023-09-15T17:39:29.429Z,20.04
2023-09-15T17:41:56.743Z,19.94
2023-09-15T17:44:24.216Z,19.84
2023-09-15T17:46:51.854Z,19.77
2023-09-15T17:49:18.846Z,19.67
2023-09-15T17:51:46.450Z,19.57
2023-09-15T17:54:13.884Z,19.48
2023-09-15T17:56:40.996Z,19.41
2023-09-15T17:59:09.032Z,19.33
2023-09-15T18:01:36.744Z,19.27
2023-09-15T18:04:04.494Z,19.19
2023-09-15T18:06:32.516Z,19.11
2023-09-15T18:09:04.120Z,19.04
2023-09-15T18:11:31.686Z,18.96
2023-09-15T18:13:59.243Z,18.89
2023-09-15T18:16:26.749Z,18.82
2023-09-15T18:18:58.250Z,18.75
2023-09-15T18:21:27.352Z,18.70
2023-09-15T18:23:55.754Z,18.65
2023-09-15T18:26:25.018Z,18.57
2023-09-15T18:28:53.429Z,18.50
2023-09-15T18:31:21.489Z,18.42
2023-09-15T18:33:51.391Z,18.34
2023-09-15T18:36:21.338Z,18.26
2023-09-15T18:38:50.569Z,18.18
2023-09-15T18:41:20.016Z,18.13
2023-09-15T18:43:51.436Z,18.08
2023-09-15T18:46:20.018Z,18.01
2023-09-15T18:48:48.395Z,17.95
2023-09-15T18:51:16.228Z,17.90
2023-09-15T18:53:44.567Z,17.85
2023-09-15T18:56:12.129Z,17.73
2023-09-15T18:58:39.890Z,17.78
2023-09-15T19:01:07.559Z,17.75
2023-09-15T19:03:36.754Z,17.71
2023-09-15T19:06:04.936Z,17.67
2023-09-15T19:08:32.913Z,17.63
2023-09-15T19:11:06.190Z,17.61
2023-09-15T19:16:22.956Z,17.52
2023-09-15T19:18:51.362Z,17.52
2023-09-15T19:21:21.164Z,17.49
2023-09-15T19:23:50.131Z,17.42
2023-09-15T19:26:19.714Z,17.40
2023-09-15T19:28:51.580Z,17.37
2023-09-15T19:31:23.069Z,17.36
2023-09-15T19:33:51.909Z,17.32
2023-09-15T19:36:20.476Z,17.30
2023-09-15T19:38:49.268Z,17.21
2023-09-15T19:41:18.537Z,17.23
2023-09-15T19:43:47.771Z,17.21
2023-09-15T19:46:16.714Z,17.16
2023-09-15T19:48:45.707Z,17.14
2023-09-15T19:51:14.678Z,17.11
2023-09-15T19:53:44.055Z,17.08
2023-09-15T19:56:11.934Z,17.06
2023-09-15T19:58:39.997Z,17.03
2023-09-15T20:01:07.708Z,16.99
2023-09-15T20:03:35.617Z,16.95
2023-09-15T20:06:04.320Z,16.92
2023-09-15T20:08:32.503Z,16.89
2023-09-15T20:11:00.262Z,16.78
2023-09-15T20:13:27.615Z,16.85
2023-09-15T20:15:54.906Z,16.83
2023-09-15T20:18:23.293Z,16.81
2023-09-15T20:20:55.116Z,16.82
2023-09-15T20:23:22.483Z,16.82
2023-09-15T20:25:50.020Z,16.79
2023-09-15T20:28:17.399Z,16.72
2023-09-15T20:30:44.949Z,16.72
2023-09-15T20:33:12.744Z,16.68
2023-09-15T20:35:43.061Z,16.63
2023-09-15T20:38:10.832Z,16.59
2023-09-15T20:40:39.203Z,16.52
2023-09-15T20:43:07.189Z,16.43
2023-09-15T20:45:35.232Z,16.33
2023-09-15T20:48:04.368Z,16.41
2023-09-15T20:50:32.124Z,16.38
2023-09-15T20:52:59.371Z,16.39
2023-09-15T20:55:27.748Z,16.33
2023-09-15T20:57:54.850Z,16.41
2023-09-15T21:00:22.069Z,16.37
2023-09-15T21:02:49.745Z,16.33
2023-09-15T21:05:18.622Z,16.31
2023-09-15T21:07:46.932Z,16.30
2023-09-15T21:10:14.665Z,16.28
2023-09-15T21:12:42.352Z,16.26
2023-09-15T21:15:10.214Z,16.24
2023-09-15T21:17:37.687Z,16.25
2023-09-15T21:20:05.471Z,16.22
2023-09-15T21:22:34.826Z,16.19
2023-09-15T21:25:03.256Z,16.16
2023-09-15T21:27:30.455Z,16.16
2023-09-15T21:29:57.738Z,16.14
2023-09-15T21:32:24.816Z,16.11
2023-09-15T21:34:51.689Z,16.10
2023-09-15T21:37:19.268Z,16.03
2023-09-15T21:39:46.725Z,16.08
2023-09-15T21:42:13.765Z,16.06
2023-09-15T21:44:41.057Z,16.08
2023-09-15T21:47:08.317Z,16.02
2023-09-15T21:49:36.082Z,16.04
2023-09-15T21:52:04.569Z,16.00
2023-09-15T21:54:32.710Z,15.92
2023-09-15T21:57:00.756Z,15.89
2023-09-15T21:59:28.398Z,15.89
2023-09-15T22:01:55.816Z,15.83
2023-09-15T22:04:23.099Z,15.83
2023-09-15T22:06:50.465Z,15.84
2023-09-15T22:09:17.407Z,15.81
2023-09-15T22:11:45.266Z,15.79
2023-09-15T22:14:12.421Z,15.79
2023-09-15T22:16:39.437Z,15.79
2023-09-15T22:19:07.071Z,15.80
2023-09-15T22:21:34.370Z,15.75
2023-09-15T22:24:01.763Z,15.72
2023-09-15T22:26:29.235Z,15.71
2023-09-15T22:28:56.037Z,15.69
2023-09-15T22:31:23.286Z,15.68
2023-09-15T22:33:51.813Z,15.67
2023-09-15T22:36:19.060Z,15.66
2023-09-15T22:38:47.507Z,15.65
2023-09-15T22:41:18.379Z,15.48
2023-09-15T22:43:46.755Z,15.62
2023-09-15T22:46:25.012Z,15.61
2023-09-15T22:48:55.294Z,15.61
2023-09-15T22:51:22.265Z,15.59
2023-09-15T22:53:50.112Z,15.59
2023-09-15T22:56:17.265Z,15.58
2023-09-15T22:58:44.578Z,15.57
